Time;durP1;ratioP1;P1;durP2;ratioP2;P2;SDS_P1;SDS_P2;PMS_P1;PMS_P2;Temp;Humidity;BMP_temperature;BMP_pressure;BME280_temperature;BME280_humidity;BME280_pressure;Samples;Min_cycle;Max_cycle;Signal;HPM_P1;HPM_P2
2022/04/23 00:01:57;;;;;;;6.68;1.55;;;17.40;96.00;;;;;;6306012;22;20331;-67
2022/04/23 00:04:25;;;;;;;7.60;1.30;;;17.50;96.10;;;;;;6305889;22;20605;-67
2022/04/23 00:06:52;;;;;;;5.45;1.48;;;17.50;95.70;;;;;;6305757;22;20434;-67
2022/04/23 00:09:19;;;;;;;4.55;1.30;;;17.50;95.40;;;;;;6306294;22;20438;-67
2022/04/23 00:11:47;;;;;;;5.43;1.23;;;17.50;95.60;;;;;;6278942;22;20015;-66
2022/04/23 00:14:14;;;;;;;3.20;1.23;;;17.50;95.80;;;;;;6305977;22;20014;-67
2022/04/23 00:16:41;;;;;;;3.47;1.10;;;17.50;95.90;;;;;;6253674;22;20000;-67
2022/04/23 00:19:08;;;;;;;4.00;1.20;;;17.60;95.80;;;;;;6278375;22;20064;-67
2022/04/23 00:21:35;;;;;;;4.00;1.08;;;17.50;94.80;;;;;;6305943;22;20007;-67
2022/04/23 00:24:04;;;;;;;5.10;1.27;;;17.50;94.50;;;;;;6278847;22;20427;-67
2022/04/23 00:26:31;;;;;;;5.35;1.23;;;17.60;93.90;;;;;;6305614;22;20007;-67
2022/04/23 00:28:58;;;;;;;4.32;1.10;;;17.70;94.70;;;;;;6306208;22;20007;-67
2022/04/23 00:31:26;;;;;;;8.93;1.50;;;17.70;94.90;;;;;;6305452;22;20025;-65
2022/04/23 00:33:54;;;;;;;4.90;1.40;;;17.70;95.10;;;;;;6253187;22;20377;-65
2022/04/23 00:36:23;;;;;;;4.28;1.58;;;17.70;95.20;;;;;;6253056;22;20004;-67
2022/04/23 00:38:52;;;;;;;2.58;1.17;;;17.80;94.70;;;;;;6305792;22;20015;-67
2022/04/23 00:44:06;;;;;;;4.53;1.25;;;17.80;94.40;;;;;;6305863;22;20491;-67
2022/04/23 00:46:33;;;;;;;5.20;1.52;;;17.80;93.70;;;;;;6278738;22;20700;-67
2022/04/23 00:49:00;;;;;;;4.28;1.25;;;17.90;93.50;;;;;;6306149;22;20253;-68
2022/04/23 00:51:30;;;;;;;2.40;1.20;;;17.90;93.80;;;;;;6278056;22;20015;-67
2022/04/23 00:53:58;;;;;;;3.67;1.17;;;17.90;93.70;;;;;;6278368;22;20019;-67
2022/04/23 00:56:25;;;;;;;7.45;1.40;;;17.90;93.50;;;;;;6253220;22;20007;-65
2022/04/23 00:58:53;;;;;;;5.53;1.10;;;18.00;93.60;;;;;;6227446;22;19999;-67
2022/04/23 01:01:23;;;;;;;3.97;1.20;;;17.90;92.40;;;;;;6253288;22;20023;-67
2022/04/23 01:03:51;;;;;;;5.63;1.30;;;18.00;91.70;;;;;;6305263;22;20003;-67
2022/04/23 01:06:19;;;;;;;2.33;1.13;;;18.00;92.20;;;;;;6305280;22;20010;-65
2022/04/23 01:08:47;;;;;;;3.58;1.13;;;18.10;91.60;;;;;;6278406;22;20133;-65
2022/04/23 01:11:14;;;;;;;4.78;1.13;;;18.10;91.00;;;;;;6304639;22;20022;-67
2022/04/23 01:13:44;;;;;;;3.13;1.15;;;18.20;91.40;;;;;;6305244;22;20045;-65
2022/04/23 01:16:11;;;;;;;3.05;1.17;;;18.20;90.70;;;;;;6305247;22;20033;-66
2022/04/23 01:18:42;;;;;;;4.20;1.08;;;18.20;89.60;;;;;;6278210;22;20006;-65
2022/04/23 01:21:10;;;;;;;4.38;1.20;;;18.20;89.80;;;;;;6305261;22;20021;-65
2022/04/23 01:23:42;;;;;;;2.22;1.00;;;18.30;89.60;;;;;;6305293;22;20193;-68
2022/04/23 01:26:10;;;;;;;2.75;0.90;;;18.30;89.20;;;;;;6277506;22;20007;-66
2022/04/23 01:28:37;;;;;;;2.08;1.10;;;18.30;89.20;;;;;;6278334;22;20098;-65
2022/04/23 01:31:05;;;;;;;3.50;1.00;;;18.30;88.30;;;;;;6252475;22;20047;-66
2022/04/23 01:33:34;;;;;;;4.63;1.13;;;18.30;88.10;;;;;;6277635;22;20000;-65
2022/04/23 01:36:02;;;;;;;3.28;1.02;;;18.40;86.90;;;;;;6277887;22;20540;-66
2022/04/23 01:38:29;;;;;;;2.13;0.90;;;18.40;86.50;;;;;;6304956;22;20017;-65
2022/04/23 01:40:57;;;;;;;2.47;0.90;;;18.40;86.10;;;;;;6305562;22;20435;-65
2022/04/23 01:43:24;;;;;;;4.18;1.20;;;18.40;85.60;;;;;;6277983;22;20049;-65
2022/04/23 01:45:51;;;;;;;3.88;1.10;;;18.30;85.30;;;;;;6305085;22;20010;-65
2022/04/23 01:48:18;;;;;;;2.85;0.98;;;18.30;84.80;;;;;;6304697;22;20006;-66
2022/04/23 01:50:45;;;;;;;2.15;0.98;;;18.30;85.00;;;;;;6304584;22;20414;-66
2022/04/23 01:53:12;;;;;;;2.13;1.00;;;18.30;85.80;;;;;;6304834;22;20326;-66
2022/04/23 01:55:40;;;;;;;2.63;0.65;;;18.40;85.70;;;;;;6304948;22;20466;-66
2022/04/23 01:58:07;;;;;;;2.92;0.90;;;18.30;85.30;;;;;;6305145;22;20007;-66
2022/04/23 02:00:34;;;;;;;1.80;1.00;;;18.40;85.70;;;;;;6305345;22;20373;-65
2022/04/23 02:03:01;;;;;;;2.72;0.98;;;18.40;85.90;;;;;;6304569;22;19995;-66
2022/04/23 02:05:28;;;;;;;1.90;0.80;;;18.40;81.90;;;;;;6276859;22;20007;-66
2022/04/23 02:07:56;;;;;;;2.13;1.00;;;18.40;83.40;;;;;;6304615;22;20011;-66
2022/04/23 02:10:23;;;;;;;2.30;0.80;;;18.40;81.60;;;;;;6304396;22;20506;-66
2022/04/23 02:12:50;;;;;;;1.50;0.90;;;18.50;81.60;;;;;;6304576;22;19999;-66
2022/04/23 02:15:17;;;;;;;2.47;0.75;;;18.50;81.90;;;;;;6304657;22;20322;-66
2022/04/23 02:17:49;;;;;;;5.13;1.20;;;18.50;83.40;;;;;;6304637;22;19995;-66
2022/04/23 02:20:16;;;;;;;3.70;1.10;;;18.50;82.40;;;;;;6304911;22;20171;-66
2022/04/23 02:22:47;;;;;;;3.30;1.10;;;18.50;83.10;;;;;;6304660;22;20029;-66
2022/04/23 02:25:16;;;;;;;3.47;1.10;;;18.50;83.20;;;;;;6278093;22;19996;-66
2022/04/23 02:27:50;;;;;;;6.38;0.90;;;18.60;83.10;;;;;;6278045;22;20403;-65
2022/04/23 02:30:21;;;;;;;8.73;1.10;;;18.60;80.50;;;;;;6277298;22;20326;-66
2022/04/23 02:32:48;;;;;;;4.07;1.27;;;18.70;76.20;;;;;;6252448;22;19999;-66
2022/04/23 02:35:16;;;;;;;2.78;0.93;;;18.80;75.80;;;;;;6277356;22;20350;-66
2022/04/23 02:37:45;;;;;;;1.95;0.95;;;18.80;76.20;;;;;;6304210;22;20417;-65
2022/04/23 02:40:13;;;;;;;3.53;1.00;;;18.90;75.50;;;;;;6253322;22;20012;-68
2022/04/23 02:42:40;;;;;;;11.55;2.28;;;18.90;77.40;;;;;;6304314;22;20486;-65
2022/04/23 02:45:15;;;;;;;5.85;1.60;;;18.80;77.40;;;;;;6304610;22;20053;-65
2022/04/23 02:47:43;;;;;;;4.88;1.13;;;18.80;77.30;;;;;;6304644;22;19995;-66
2022/04/23 02:50:10;;;;;;;3.25;1.00;;;18.80;77.80;;;;;;6277351;22;20007;-65
2022/04/23 02:52:40;;;;;;;5.22;1.10;;;18.70;78.00;;;;;;6252150;22;20010;-65
2022/04/23 02:55:07;;;;;;;2.80;1.30;;;18.80;79.40;;;;;;6304353;22;20310;-65
2022/04/23 02:57:35;;;;;;;4.25;1.05;;;18.80;79.50;;;;;;6304793;22;19996;-66
2022/04/23 03:00:04;;;;;;;3.08;1.30;;;18.80;79.90;;;;;;6305421;22;20134;-66
2022/04/23 03:02:35;;;;;;;4.22;1.00;;;18.80;79.50;;;;;;6306200;22;20018;-66
2022/04/23 03:05:06;;;;;;;2.28;0.85;;;18.80;79.80;;;;;;6306332;22;20057;-66
2022/04/23 03:07:35;;;;;;;2.45;1.10;;;18.80;78.30;;;;;;6306661;22;20003;-66
2022/04/23 03:10:11;;;;;;;2.28;0.82;;;18.90;79.60;;;;;;6306193;22;19999;-66
2022/04/23 03:12:38;;;;;;;5.03;1.38;;;19.00;79.30;;;;;;6306097;22;20003;-65
2022/04/23 03:15:07;;;;;;;4.43;1.40;;;19.00;80.40;;;;;;6278739;22;20004;-66
2022/04/23 03:17:34;;;;;;;4.97;1.20;;;19.10;79.50;;;;;;6279145;22;20007;-66
2022/04/23 03:20:01;;;;;;;5.22;1.30;;;19.00;79.50;;;;;;6306800;22;20045;-66
2022/04/23 03:22:28;;;;;;;2.65;1.27;;;19.00;79.30;;;;;;6306301;22;20025;-65
2022/04/23 03:24:55;;;;;;;12.75;1.30;;;19.00;79.00;;;;;;6306242;22;20007;-66
2022/04/23 03:27:23;;;;;;;6.55;1.35;;;19.00;81.70;;;;;;6306124;22;20074;-66
2022/04/23 03:29:50;;;;;;;3.55;1.30;;;18.90;81.30;;;;;;6253365;22;20025;-65
2022/04/23 03:32:17;;;;;;;4.63;1.10;;;18.90;82.30;;;;;;6306060;22;20090;-66
2022/04/23 03:34:44;;;;;;;4.72;1.30;;;18.90;82.50;;;;;;6306396;22;19995;-66
2022/04/23 03:37:11;;;;;;;3.22;1.17;;;18.90;83.00;;;;;;6254082;22;20003;-66
2022/04/23 03:39:39;;;;;;;7.75;1.42;;;18.90;82.90;;;;;;6305628;22;20023;-66
2022/04/23 03:42:06;;;;;;;2.92;1.13;;;19.00;82.50;;;;;;6306327;22;19996;-66
2022/04/23 03:44:33;;;;;;;5.05;1.40;;;18.90;83.90;;;;;;6306073;22;20074;-66
2022/04/23 03:47:03;;;;;;;4.50;0.93;;;19.00;83.00;;;;;;6278688;22;20012;-66
2022/04/23 03:49:30;;;;;;;3.65;1.02;;;19.00;82.20;;;;;;6306038;22;20007;-66
2022/04/23 03:51:58;;;;;;;2.80;1.00;;;18.90;81.80;;;;;;6305900;22;20007;-66
2022/04/23 03:54:25;;;;;;;2.75;1.02;;;18.90;82.20;;;;;;6279242;22;20505;-66
2022/04/23 03:56:52;;;;;;;3.13;1.13;;;18.90;81.50;;;;;;6253690;22;20368;-66
2022/04/23 03:59:21;;;;;;;2.08;1.00;;;18.80;80.80;;;;;;6306048;22;20090;-66
2022/04/23 04:01:49;;;;;;;3.25;1.10;;;18.80;81.20;;;;;;6279347;22;20074;-66
2022/04/23 04:04:16;;;;;;;3.33;1.35;;;18.80;80.70;;;;;;6278490;22;20330;-66
2022/04/23 04:06:43;;;;;;;2.40;0.90;;;18.80;79.90;;;;;;6278182;22;20385;-67
2022/04/23 04:09:10;;;;;;;4.53;1.10;;;18.80;79.20;;;;;;6305695;22;20026;-66
2022/04/23 04:14:18;;;;;;;1.23;0.68;;;19.00;77.70;;;;;;6305483;22;20015;-66
2022/04/23 04:16:46;;;;;;;4.85;0.98;;;19.00;78.10;;;;;;6278600;22;20038;-66
2022/04/23 04:19:16;;;;;;;2.58;0.95;;;19.10;75.50;;;;;;6305523;22;20334;-66
2022/04/23 04:21:43;;;;;;;;;;;19.10;76.20;;;;;;6279486;22;20326;-66
2022/04/23 04:24:13;;;;;;;2.33;0.85;;;19.20;77.30;;;;;;6305401;22;19993;-66
2022/04/23 04:26:44;;;;;;;3.33;0.85;;;19.20;76.00;;;;;;6227725;22;20338;-66
2022/04/23 04:29:18;;;;;;;1.35;0.80;;;19.20;76.50;;;;;;6253576;22;20003;-66
2022/04/23 04:31:51;;;;;;;3.03;0.93;;;19.20;76.50;;;;;;6305827;22;20215;-67
2022/04/23 04:34:28;;;;;;;2.38;0.88;;;19.30;77.10;;;;;;6305664;22;20003;-66
2022/04/23 04:37:11;;;;;;;4.20;1.13;;;19.30;76.40;;;;;;6255756;22;20034;-66
2022/04/23 04:39:40;;;;;;;1.80;0.80;;;19.20;76.60;;;;;;6254483;22;20015;-66
2022/04/23 04:42:07;;;;;;;2.67;0.75;;;19.20;76.60;;;;;;6278248;22;20014;-67
2022/04/23 04:44:35;;;;;;;3.22;1.10;;;19.20;76.60;;;;;;6305655;22;20401;-66
2022/04/23 04:47:02;;;;;;;2.90;0.88;;;19.20;77.50;;;;;;6278254;22;20003;-67
2022/04/23 04:49:29;;;;;;;2.90;1.05;;;19.20;77.20;;;;;;6305376;22;20438;-66
2022/04/23 04:51:56;;;;;;;3.03;0.90;;;19.20;77.60;;;;;;6305515;22;20053;-67
2022/04/23 04:54:24;;;;;;;4.25;1.13;;;19.20;78.80;;;;;;6278349;22;20070;-66
2022/04/23 04:56:54;;;;;;;3.15;1.08;;;19.10;78.40;;;;;;6252724;22;20431;-66
2022/04/23 04:59:21;;;;;;;3.08;1.23;;;19.10;78.50;;;;;;6305336;22;19999;-66
2022/04/23 05:01:49;;;;;;;3.10;1.05;;;19.10;79.00;;;;;;6305099;22;19996;-66
2022/04/23 05:04:16;;;;;;;2.40;0.73;;;19.00;78.50;;;;;;6305373;22;20011;-66
2022/04/23 05:06:44;;;;;;;3.03;0.77;;;19.00;79.60;;;;;;6305512;22;19999;-66
2022/04/23 05:09:11;;;;;;;2.35;0.80;;;19.00;78.60;;;;;;6305402;22;20015;-67
2022/04/23 05:11:38;;;;;;;2.03;0.90;;;19.00;79.50;;;;;;6304669;22;20065;-67
2022/04/23 05:14:05;;;;;;;1.15;0.80;;;18.90;79.60;;;;;;6305527;22;20007;-66
2022/04/23 05:16:32;;;;;;;2.67;0.98;;;19.00;79.50;;;;;;6305403;22;20076;-66
2022/04/23 05:18:59;;;;;;;1.92;0.93;;;18.90;79.90;;;;;;6304871;22;20071;-66
2022/04/23 05:21:27;;;;;;;8.27;1.08;;;18.90;80.70;;;;;;6304856;22;20079;-67
2022/04/23 05:23:54;;;;;;;3.58;0.98;;;18.90;80.40;;;;;;6304802;22;20055;-66
2022/04/23 05:26:21;;;;;;;4.32;1.10;;;18.90;80.30;;;;;;6304368;22;20010;-66
2022/04/23 05:28:49;;;;;;;1.75;0.80;;;18.90;80.20;;;;;;6304609;22;19999;-66
2022/04/23 05:31:16;;;;;;;3.65;1.15;;;19.00;80.30;;;;;;6304765;22;20018;-66
2022/04/23 05:33:43;;;;;;;2.88;0.73;;;19.00;79.50;;;;;;6304503;22;20053;-66
2022/04/23 05:36:10;;;;;;;2.25;0.80;;;19.00;77.80;;;;;;6304699;22;20014;-66
2022/04/23 05:38:37;;;;;;;1.95;0.82;;;19.00;77.00;;;;;;6277245;22;20438;-66
2022/04/23 05:41:05;;;;;;;2.63;0.77;;;19.00;77.50;;;;;;6304845;22;20003;-66
2022/04/23 05:43:32;;;;;;;1.95;0.90;;;19.00;77.50;;;;;;6305123;22;19995;-66
2022/04/23 05:46:00;;;;;;;0.90;0.70;;;19.00;78.10;;;;;;6304819;22;20010;-66
2022/04/23 05:48:27;;;;;;;4.65;0.70;;;19.10;77.80;;;;;;6304849;22;20066;-67
2022/04/23 05:50:54;;;;;;;1.67;0.40;;;19.00;76.90;;;;;;6277240;22;20029;-66
2022/04/23 05:53:22;;;;;;;2.08;0.90;;;19.10;76.60;;;;;;6252215;22;20003;-66
2022/04/23 05:55:49;;;;;;;3.30;0.90;;;19.10;78.20;;;;;;6277671;22;20003;-66
2022/04/23 05:58:16;;;;;;;3.78;1.20;;;19.10;78.10;;;;;;6304776;22;20207;-66
2022/04/23 06:00:44;;;;;;;4.72;0.70;;;19.10;78.70;;;;;;6277232;22;20003;-66
2022/04/23 06:03:12;;;;;;;5.45;1.10;;;19.00;78.20;;;;;;6304497;22;20007;-66
2022/04/23 06:05:40;;;;;;;3.30;0.90;;;19.00;77.10;;;;;;6305250;22;20437;-66
2022/04/23 06:08:07;;;;;;;1.25;0.70;;;19.00;77.50;;;;;;6305255;22;20010;-66
2022/04/23 06:10:35;;;;;;;4.53;0.90;;;19.00;78.00;;;;;;6304411;22;20488;-66
2022/04/23 06:13:02;;;;;;;2.92;1.00;;;19.00;77.50;;;;;;6277251;22;19999;-65
2022/04/23 06:15:29;;;;;;;2.05;0.68;;;19.10;76.10;;;;;;6304560;22;20070;-66
2022/04/23 06:17:56;;;;;;;2.80;1.23;;;19.10;76.80;;;;;;6304413;22;20026;-66
2022/04/23 06:20:25;;;;;;;4.43;0.90;;;19.10;76.20;;;;;;6277343;22;19995;-65
2022/04/23 06:22:52;;;;;;;2.67;0.90;;;19.10;76.70;;;;;;6304416;22;20398;-65
2022/04/23 06:25:19;;;;;;;2.33;0.80;;;19.10;76.50;;;;;;6304682;22;20337;-67
2022/04/23 06:27:46;;;;;;;5.00;1.15;;;19.10;76.50;;;;;;6304716;22;20027;-65
2022/04/23 06:30:15;;;;;;;2.42;0.80;;;19.10;76.90;;;;;;6304683;22;20419;-65
2022/04/23 06:32:43;;;;;;;2.22;0.90;;;19.00;77.20;;;;;;6277111;22;20137;-65
2022/04/23 06:35:10;;;;;;;5.53;1.00;;;19.10;77.10;;;;;;6304621;22;20073;-65
2022/04/23 06:37:44;;;;;;;3.28;0.77;;;19.00;77.00;;;;;;6304204;22;20085;-65
2022/04/23 06:40:12;;;;;;;3.70;0.90;;;19.00;76.70;;;;;;6304432;22;20098;-65
2022/04/23 06:42:43;;;;;;;9.90;1.75;;;19.00;76.50;;;;;;6277480;22;20476;-65
2022/04/23 06:45:10;;;;;;;;;;;19.10;76.50;;;;;;6304906;22;20071;-65
2022/04/23 06:47:37;;;;;;;5.20;1.00;;;19.00;76.40;;;;;;6304100;22;19961;-65
2022/04/23 06:50:06;;;;;;;2.40;0.85;;;19.00;76.90;;;;;;6277201;22;19995;-65
2022/04/23 06:52:33;;;;;;;2.95;1.08;;;19.10;76.60;;;;;;6304319;22;20037;-65
2022/04/23 06:55:00;;;;;;;1.42;0.70;;;19.00;77.20;;;;;;6304110;22;20445;-66
2022/04/23 06:57:27;;;;;;;3.83;1.17;;;19.00;76.90;;;;;;6304331;22;20003;-65
2022/04/23 06:59:54;;;;;;;3.33;1.05;;;19.00;77.30;;;;;;6304422;22;20014;-65
2022/04/23 07:02:22;;;;;;;1.52;0.88;;;19.00;77.60;;;;;;6304674;22;20003;-65
2022/04/23 07:04:49;;;;;;;5.32;1.38;;;19.00;77.90;;;;;;6251706;22;20004;-65
2022/04/23 07:07:16;;;;;;;3.65;1.23;;;19.00;77.30;;;;;;6304870;22;20045;-66
2022/04/23 07:09:43;;;;;;;3.00;1.20;;;19.00;77.60;;;;;;6304458;22;20071;-65
2022/04/23 07:12:11;;;;;;;3.47;1.10;;;19.00;77.20;;;;;;6304418;22;20033;-66
2022/04/23 07:14:39;;;;;;;6.05;1.20;;;19.00;77.50;;;;;;6277599;22;20450;-65
2022/04/23 07:17:06;;;;;;;3.25;1.30;;;19.00;77.40;;;;;;6252285;22;20384;-65
2022/04/23 07:19:37;;;;;;;2.92;1.25;;;19.00;77.40;;;;;;6303737;22;20072;-66
2022/04/23 07:22:05;;;;;;;2.75;1.02;;;18.90;78.00;;;;;;6303863;22;20426;-66
2022/04/23 07:24:32;;;;;;;3.90;1.00;;;18.80;77.50;;;;;;6304700;22;19995;-65
2022/04/23 07:26:59;;;;;;;3.15;1.02;;;18.80;77.50;;;;;;6304700;22;20288;-65
2022/04/23 07:29:26;;;;;;;5.03;1.30;;;18.80;77.20;;;;;;6304390;22;20079;-65
2022/04/23 07:31:55;;;;;;;4.72;1.17;;;18.90;77.50;;;;;;6304207;22;20053;-65
2022/04/23 07:39:53;;;;;;;2.45;1.30;;;18.90;77.80;;;;;;6303814;22;20077;-66
2022/04/23 07:42:20;;;;;;;4.30;1.13;;;18.80;78.20;;;;;;6276757;22;20013;-65
2022/04/23 07:44:47;;;;;;;3.17;1.30;;;18.80;78.30;;;;;;6304230;22;20011;-66
2022/04/23 07:47:14;;;;;;;2.55;1.30;;;18.80;78.20;;;;;;6303793;22;20060;-66
2022/04/23 07:49:42;;;;;;;3.17;1.25;;;18.80;78.10;;;;;;6306209;22;20430;-66
2022/04/23 07:52:09;;;;;;;4.28;1.60;;;18.80;78.40;;;;;;6305993;22;20014;-66
2022/04/23 07:54:39;;;;;;;2.65;1.45;;;18.80;79.10;;;;;;6306046;22;19999;-66
2022/04/23 07:57:07;;;;;;;2.45;1.25;;;18.70;79.00;;;;;;6305625;22;20011;-66
2022/04/23 07:59:34;;;;;;;3.33;1.38;;;18.70;79.20;;;;;;6279278;22;19995;-66
2022/04/23 08:02:02;;;;;;;4.75;1.58;;;18.70;79.10;;;;;;6306135;22;20010;-65
2022/04/23 08:04:29;;;;;;;4.03;1.38;;;18.70;79.10;;;;;;6305874;22;20338;-66
2022/04/23 08:06:56;;;;;;;2.90;1.40;;;18.70;79.40;;;;;;6306540;22;20010;-66
2022/04/23 08:09:23;;;;;;;3.30;1.48;;;18.70;79.80;;;;;;6305850;22;20030;-66
2022/04/23 08:11:50;;;;;;;2.65;1.60;;;18.70;80.00;;;;;;6305995;22;20016;-66
2022/04/23 08:14:18;;;;;;;4.20;2.25;;;18.70;80.00;;;;;;6305997;22;19995;-66
2022/04/23 08:16:48;;;;;;;4.75;1.90;;;18.70;80.10;;;;;;6278714;22;20090;-66
2022/04/23 08:19:17;;;;;;;3.72;2.03;;;18.60;80.30;;;;;;6305801;22;20061;-66
2022/04/23 08:21:44;;;;;;;4.82;1.73;;;18.60;81.30;;;;;;6278976;22;20049;-66
2022/04/23 08:24:11;;;;;;;5.05;1.90;;;18.50;81.40;;;;;;6306330;22;20014;-66
2022/04/23 08:26:38;;;;;;;4.55;1.90;;;18.50;81.10;;;;;;6306016;22;20007;-66
2022/04/23 08:31:52;;;;;;;4.35;2.13;;;18.50;81.40;;;;;;6305962;22;20085;-66
2022/04/23 08:34:19;;;;;;;3.47;1.92;;;18.50;81.30;;;;;;6305796;22;20002;-66
2022/04/23 08:36:49;;;;;;;5.97;2.15;;;18.50;82.30;;;;;;6305811;22;20003;-66
2022/04/23 08:39:16;;;;;;;9.23;2.53;;;18.50;81.60;;;;;;6254488;22;20094;-66
2022/04/23 08:41:45;;;;;;;4.68;2.20;;;18.50;81.10;;;;;;6306055;22;20003;-66
2022/04/23 08:44:13;;;;;;;4.25;2.22;;;18.40;81.10;;;;;;6305939;22;20431;-66
2022/04/23 08:46:41;;;;;;;5.30;2.15;;;18.40;80.30;;;;;;6306029;22;20028;-66
2022/04/23 08:49:16;;;;;;;4.45;1.85;;;18.40;80.40;;;;;;6305463;22;19995;-66
2022/04/23 08:51:45;;;;;;;5.00;1.80;;;18.40;79.50;;;;;;6277864;22;20018;-66
2022/04/23 08:54:14;;;;;;;4.88;1.65;;;18.40;78.80;;;;;;6278249;22;20070;-66
2022/04/23 08:56:42;;;;;;;6.78;2.22;;;18.40;79.00;;;;;;6278609;22;20587;-66
2022/04/23 08:59:14;;;;;;;3.90;2.15;;;18.40;79.10;;;;;;6279132;22;19999;-66
2022/04/23 09:01:41;;;;;;;5.20;2.10;;;18.40;78.80;;;;;;6278921;22;20004;-66
2022/04/23 09:04:08;;;;;;;6.10;2.03;;;18.40;79.00;;;;;;6305292;22;20008;-66
2022/04/23 09:06:45;;;;;;;6.78;2.13;;;18.40;79.10;;;;;;6305589;22;19995;-66
2022/04/23 09:09:13;;;;;;;4.88;1.88;;;18.40;78.00;;;;;;6305284;22;19999;-66
2022/04/23 09:12:04;;;;;;;4.25;1.85;;;18.40;78.30;;;;;;6305046;22;20350;-66
2022/04/23 09:14:32;;;;;;;4.60;1.98;;;18.40;78.40;;;;;;6278003;22;20384;-66
2022/04/23 09:25:37;;;;;;;8.35;3.90;;;18.30;79.70;;;;;;6305336;22;20060;-66
2022/04/23 09:28:29;;;;;;;7.32;3.45;;;18.30;79.80;;;;;;6304807;22;20003;-66
2022/04/23 09:30:59;;;;;;;6.00;3.10;;;18.30;79.40;;;;;;6304986;22;20011;-66
2022/04/23 09:33:41;;;;;;;5.57;2.92;;;18.30;78.70;;;;;;6253889;22;20006;-66
2022/04/23 09:36:09;;;;;;;7.82;3.30;;;18.30;78.80;;;;;;6305178;22;19999;-66
2022/04/23 09:38:36;;;;;;;10.35;3.47;;;18.30;79.10;;;;;;6277688;22;20324;-66
2022/04/23 09:41:16;;;;;;;7.35;3.20;;;18.30;79.10;;;;;;6277962;22;20332;-66
2022/04/23 09:43:44;;;;;;;5.60;2.78;;;18.20;79.30;;;;;;6257727;22;19999;-66
2022/04/23 09:46:12;;;;;;;5.05;2.53;;;18.20;79.30;;;;;;6278491;22;20043;-66
2022/04/23 09:48:40;;;;;;;5.20;2.80;;;18.20;79.10;;;;;;6305166;22;20004;-66
2022/04/23 09:51:28;;;;;;;4.57;2.30;;;18.20;79.60;;;;;;6278143;22;20035;-66
2022/04/23 09:53:55;;;;;;;6.10;2.90;;;18.20;79.90;;;;;;6304772;22;20073;-66
2022/04/23 09:56:24;;;;;;;4.75;2.60;;;18.20;79.80;;;;;;6253036;22;20025;-66
2022/04/23 09:58:54;;;;;;;11.60;3.58;;;18.20;80.50;;;;;;6305111;22;19999;-66
2022/04/23 10:01:22;;;;;;;9.27;3.28;;;18.20;80.40;;;;;;6278230;22;20074;-66
2022/04/23 10:03:54;;;;;;;8.65;3.08;;;18.20;80.40;;;;;;6304585;22;20367;-65
2022/04/23 10:06:22;;;;;;;8.35;2.90;;;18.20;80.20;;;;;;6277328;22;20406;-68
2022/04/23 10:08:51;;;;;;;12.30;2.67;;;18.20;81.10;;;;;;6226388;22;20007;-65
2022/04/23 10:11:30;;;;;;;6.50;2.92;;;18.10;81.40;;;;;;6277410;22;20011;-65
2022/04/23 10:14:01;;;;;;;5.25;2.53;;;18.00;81.40;;;;;;6252530;22;20061;-65
2022/04/23 10:16:32;;;;;;;6.45;2.78;;;18.00;81.80;;;;;;6304620;22;20334;-65
2022/04/23 10:19:00;;;;;;;7.82;3.03;;;18.00;81.50;;;;;;6304661;22;20100;-65
2022/04/23 10:21:49;;;;;;;5.28;2.50;;;18.00;81.70;;;;;;6304186;22;20014;-65
2022/04/23 10:24:20;;;;;;;11.45;2.78;;;18.00;81.90;;;;;;6281834;22;19996;-65
2022/04/23 10:26:51;;;;;;;6.72;2.70;;;18.00;82.30;;;;;;6278408;22;20000;-65
2022/04/23 10:29:25;;;;;;;7.15;3.30;;;18.00;82.80;;;;;;6277492;22;20438;-65
2022/04/23 10:32:13;;;;;;;7.43;3.28;;;18.00;82.30;;;;;;6251767;22;20012;-65
2022/04/23 10:34:41;;;;;;;5.82;2.95;;;17.90;82.20;;;;;;6304541;22;20007;-65
2022/04/23 10:37:29;;;;;;;7.53;2.85;;;17.90;82.40;;;;;;6277519;22;20422;-65
2022/04/23 10:39:57;;;;;;;7.30;2.67;;;17.80;82.60;;;;;;6303959;22;20100;-65
2022/04/23 10:42:25;;;;;;;7.43;2.90;;;17.80;82.70;;;;;;6304673;22;20005;-65
2022/04/23 10:44:54;;;;;;;4.35;2.63;;;17.80;82.60;;;;;;6304378;22;20026;-65
2022/04/23 10:47:32;;;;;;;8.40;3.13;;;17.80;82.50;;;;;;6304298;22;20006;-65
2022/04/23 10:50:19;;;;;;;9.70;3.13;;;17.80;82.60;;;;;;6304634;22;20035;-65
2022/04/23 10:52:47;;;;;;;6.70;3.22;;;17.70;83.10;;;;;;6304470;22;20086;-65
2022/04/23 10:55:14;;;;;;;7.45;3.13;;;17.80;83.20;;;;;;6252383;22;19999;-65
2022/04/23 10:58:19;;;;;;;9.90;2.83;;;17.70;83.30;;;;;;6277573;22;20010;-65
2022/04/23 11:00:47;;;;;;;6.00;3.22;;;17.70;83.00;;;;;;6277538;22;20003;-65
2022/04/23 11:03:14;;;;;;;6.55;3.17;;;17.70;83.00;;;;;;6304201;22;20030;-65
2022/04/23 11:14:08;;;;;;;5.43;3.05;;;17.80;82.70;;;;;;6304621;22;20018;-65
2022/04/23 11:16:36;;;;;;;7.50;3.00;;;17.70;83.00;;;;;;6277220;22;20091;-67
2022/04/23 11:19:03;;;;;;;4.65;2.70;;;17.70;83.10;;;;;;6304252;22;20053;-65
2022/04/23 11:21:32;;;;;;;5.90;2.70;;;17.70;83.20;;;;;;6279060;22;19999;-65
2022/04/23 11:24:01;;;;;;;8.07;2.78;;;17.70;83.20;;;;;;6279832;22;19996;-66
2022/04/23 11:26:45;;;;;;;5.82;2.35;;;17.70;84.30;;;;;;6279049;22;20007;-65
2022/04/23 11:29:15;;;;;;;5.88;2.20;;;17.60;84.90;;;;;;6306390;22;20007;-68
2022/04/23 11:31:52;;;;;;;2.97;2.10;;;17.50;85.50;;;;;;6305874;22;20064;-65
2022/04/23 11:34:19;;;;;;;4.43;2.10;;;17.40;85.40;;;;;;6306238;22;20003;-65
2022/04/23 11:36:46;;;;;;;11.00;2.40;;;17.40;86.20;;;;;;6306852;22;20026;-65
2022/04/23 11:39:14;;;;;;;4.75;1.80;;;17.40;86.50;;;;;;6305931;22;20015;-65
2022/04/23 11:41:42;;;;;;;5.07;2.13;;;17.40;86.50;;;;;;6306280;22;20030;-65
2022/04/23 11:44:14;;;;;;;8.65;2.20;;;17.50;86.70;;;;;;6279060;22;19996;-65
2022/04/23 11:46:45;;;;;;;7.82;2.20;;;17.40;86.30;;;;;;6254342;22;20003;-65
2022/04/23 11:49:30;;;;;;;5.78;2.53;;;17.50;86.40;;;;;;6254594;22;20007;-65
2022/04/23 11:52:01;;;;;;;8.27;2.40;;;17.50;86.60;;;;;;6279484;22;20011;-65
2022/04/23 11:54:38;;;;;;;6.82;2.30;;;17.40;86.80;;;;;;6278967;22;19999;-65
2022/04/23 11:57:12;;;;;;;3.05;2.25;;;17.40;86.90;;;;;;6254574;22;19999;-65
2022/04/23 11:59:46;;;;;;;5.60;2.30;;;17.40;86.70;;;;;;6278942;22;20003;-65
2022/04/23 12:02:26;;;;;;;5.95;2.45;;;17.40;87.10;;;;;;6254753;22;20039;-65
2022/04/23 12:04:55;;;;;;;4.18;2.00;;;17.40;87.30;;;;;;6306382;22;20007;-65
2022/04/23 12:07:23;;;;;;;6.22;2.30;;;17.40;87.20;;;;;;6279264;22;20003;-65
2022/04/23 12:09:54;;;;;;;8.18;2.50;;;17.40;87.30;;;;;;6278891;22;20029;-65
2022/04/23 12:12:25;;;;;;;5.15;2.38;;;17.40;87.00;;;;;;6279160;22;20074;-65
2022/04/23 12:14:54;;;;;;;4.97;2.05;;;17.40;87.40;;;;;;6279039;22;20000;-65
2022/04/23 12:17:29;;;;;;;6.07;2.00;;;17.40;87.30;;;;;;6278826;22;20003;-65
2022/04/23 12:20:00;;;;;;;6.18;2.30;;;17.50;87.50;;;;;;6305676;22;20022;-65
2022/04/23 12:22:31;;;;;;;5.75;2.00;;;17.50;87.50;;;;;;6278509;22;20006;-65
2022/04/23 12:25:16;;;;;;;7.13;2.17;;;17.50;87.40;;;;;;6305678;22;20456;-67
2022/04/23 12:42:06;;;;;;;7.13;2.30;;;17.50;87.60;;;;;;6283114;22;20011;-65
2022/04/23 12:44:43;;;;;;;5.43;2.80;;;17.50;87.60;;;;;;6306197;22;20003;-67
2022/04/23 12:47:13;;;;;;;7.30;2.90;;;17.50;87.50;;;;;;6280885;22;20003;-65
2022/04/23 12:49:50;;;;;;;9.13;3.27;;;17.50;87.40;;;;;;6305716;22;20322;-67
2022/04/23 12:52:27;;;;;;;7.53;3.20;;;17.50;87.50;;;;;;6305625;22;20279;-65
2022/04/23 12:55:22;;;;;;;6.68;3.25;;;17.40;87.50;;;;;;6280145;22;20007;-65
2022/04/23 12:58:01;;;;;;;10.05;3.53;;;17.40;87.80;;;;;;6305415;22;20052;-65
2022/04/23 13:00:29;;;;;;;7.77;3.50;;;17.30;88.20;;;;;;6305317;22;20315;-65
2022/04/23 13:02:59;;;;;;;10.90;3.83;;;17.30;88.70;;;;;;6305686;22;20003;-65
2022/04/23 13:05:26;;;;;;;;;;;17.30;89.00;;;;;;6305703;22;20003;-65
2022/04/23 13:10:39;;;;;;;8.30;3.85;;;17.30;89.30;;;;;;6305207;22;20163;-66
2022/04/23 13:13:07;;;;;;;5.40;3.53;;;17.30;89.60;;;;;;6305469;22;20163;-66
2022/04/23 13:15:35;;;;;;;8.43;4.00;;;17.30;89.60;;;;;;6253343;22;20000;-66
2022/04/23 13:18:06;;;;;;;7.78;3.45;;;17.20;89.90;;;;;;6305583;22;19999;-66
2022/04/23 13:20:34;;;;;;;9.25;3.40;;;17.30;90.30;;;;;;6278019;22;20038;-66
2022/04/23 13:23:01;;;;;;;9.30;3.22;;;17.20;91.20;;;;;;6278070;22;20015;-66
2022/04/23 13:25:31;;;;;;;10.50;3.40;;;17.20;91.80;;;;;;6305549;22;20039;-66
2022/04/23 13:27:58;;;;;;;6.88;3.30;;;17.10;92.30;;;;;;6305145;22;19995;-66
2022/04/23 13:30:25;;;;;;;5.70;2.80;;;17.00;92.80;;;;;;6305568;22;20007;-67
2022/04/23 13:32:52;;;;;;;5.03;2.80;;;17.00;93.20;;;;;;6277911;22;20007;-66
2022/04/23 13:35:20;;;;;;;4.03;2.78;;;17.00;93.50;;;;;;6305289;22;20000;-66
2022/04/23 13:37:47;;;;;;;5.35;2.60;;;17.00;93.70;;;;;;6304980;22;20506;-66
2022/04/23 13:40:14;;;;;;;7.00;2.67;;;17.00;93.90;;;;;;6252334;22;20533;-66
2022/04/23 13:42:43;;;;;;;6.90;2.35;;;16.90;93.90;;;;;;6305180;22;20007;-66
2022/04/23 13:45:10;;;;;;;6.18;3.00;;;16.90;94.00;;;;;;6278388;22;20006;-66
2022/04/23 13:47:37;;;;;;;6.68;2.65;;;16.90;94.20;;;;;;6277765;22;20426;-66